Time;durP1;ratioP1;P1;durP2;ratioP2;P2;SDS_P1;SDS_P2;PMS_P1;PMS_P2;Temp;Humidity;BMP_temperature;BMP_pressure;BME280_temperature;BME280_humidity;BME280_pressure;Samples;Min_cycle;Max_cycle;Signal;HPM_P1;HPM_P2
2022/06/18 00:01:50;;;;;;;2.50;1.48;;;21.70;69.00;;;;;;5033892;28;20025;-78
2022/06/18 00:04:18;;;;;;;1.83;1.30;;;21.60;69.60;;;;;;5032266;28;20026;-77
2022/06/18 00:07:04;;;;;;;2.80;1.30;;;21.50;70.00;;;;;;5032826;28;20056;-77
2022/06/18 00:09:41;;;;;;;4.65;1.58;;;21.50;70.30;;;;;;5033313;28;20021;-78
2022/06/18 00:15:06;;;;;;;2.22;1.17;;;21.40;70.20;;;;;;5033499;28;20127;-77
2022/06/18 00:17:31;;;;;;;2.35;1.30;;;21.30;70.30;;;;;;5032617;28;20025;-78
2022/06/18 00:19:57;;;;;;;1.70;1.15;;;21.30;70.70;;;;;;5032085;28;20032;-77
2022/06/18 00:22:23;;;;;;;2.78;1.42;;;21.20;71.60;;;;;;5032511;28;20076;-78
2022/06/18 00:24:51;;;;;;;4.18;1.45;;;21.20;72.50;;;;;;5024855;28;20045;-78
2022/06/18 00:27:17;;;;;;;1.65;1.17;;;21.10;72.20;;;;;;5024149;28;20037;-78
2022/06/18 00:29:46;;;;;;;1.50;1.17;;;21.00;72.20;;;;;;5016576;28;20029;-77
2022/06/18 00:32:11;;;;;;;2.92;1.23;;;21.00;72.80;;;;;;5032772;28;20075;-77
2022/06/18 00:34:37;;;;;;;1.52;1.27;;;20.90;73.20;;;;;;5032650;28;20025;-78
2022/06/18 00:37:05;;;;;;;2.90;1.30;;;20.80;73.70;;;;;;5021614;28;20041;-77
2022/06/18 00:39:31;;;;;;;2.35;1.10;;;20.80;73.90;;;;;;5026574;28;20057;-77
2022/06/18 00:42:02;;;;;;;1.58;1.10;;;20.80;73.70;;;;;;5015225;28;20033;-77
2022/06/18 00:44:39;;;;;;;1.77;1.30;;;20.80;74.20;;;;;;5026714;28;20479;-78
2022/06/18 00:47:18;;;;;;;1.48;1.15;;;20.80;74.60;;;;;;5021887;28;20084;-77
2022/06/18 00:49:48;;;;;;;5.70;1.42;;;20.70;75.00;;;;;;5016474;28;20045;-78
2022/06/18 00:52:47;;;;;;;2.88;1.30;;;20.70;75.40;;;;;;5016316;28;20032;-78
2022/06/18 00:55:34;;;;;;;1.92;1.20;;;20.70;75.60;;;;;;5030838;28;20120;-78
2022/06/18 00:58:02;;;;;;;3.17;1.50;;;20.60;76.00;;;;;;5032855;28;20040;-77
2022/06/18 01:00:43;;;;;;;1.55;1.35;;;20.50;76.00;;;;;;5033115;28;20024;-78
2022/06/18 01:03:43;;;;;;;1.67;1.27;;;20.40;76.80;;;;;;5030993;28;20378;-77
2022/06/18 01:06:23;;;;;;;2.10;1.30;;;20.50;77.40;;;;;;4989364;28;20267;-78
2022/06/18 01:08:58;;;;;;;2.75;1.30;;;20.40;77.00;;;;;;5032055;28;20052;-78
2022/06/18 01:11:30;;;;;;;3.92;1.23;;;20.40;76.90;;;;;;5031998;28;20497;-79
2022/06/18 01:13:57;;;;;;;;;;;20.40;76.60;;;;;;5033421;28;20472;-78
2022/06/18 01:16:24;;;;;;;1.70;1.20;;;20.40;77.00;;;;;;5032166;28;19909;-78
2022/06/18 01:18:51;;;;;;;2.63;1.30;;;20.30;76.70;;;;;;5033010;28;20025;-78
2022/06/18 01:21:33;;;;;;;2.00;1.33;;;20.30;77.00;;;;;;5032033;28;20045;-78
2022/06/18 01:24:16;;;;;;;2.97;1.48;;;20.30;77.60;;;;;;5031260;28;20030;-78
2022/06/18 01:26:47;;;;;;;1.27;1.17;;;20.30;78.50;;;;;;5033009;28;20036;-79
2022/06/18 01:29:12;;;;;;;3.38;1.50;;;20.30;78.50;;;;;;5031624;28;20034;-79
2022/06/18 01:31:39;;;;;;;2.45;1.30;;;20.20;78.40;;;;;;5030736;28;20039;-79
2022/06/18 01:34:06;;;;;;;1.60;1.40;;;20.20;78.30;;;;;;5031374;28;20029;-79
2022/06/18 01:36:34;;;;;;;1.42;1.20;;;20.20;76.90;;;;;;5033040;28;20053;-79
2022/06/18 01:39:03;;;;;;;2.17;1.33;;;20.20;77.60;;;;;;5032121;28;20065;-78
2022/06/18 01:41:52;;;;;;;3.80;1.52;;;20.20;77.70;;;;;;5031804;28;20025;-78
2022/06/18 01:44:39;;;;;;;1.70;1.40;;;20.30;77.80;;;;;;5011577;28;20022;-77
2022/06/18 01:47:18;;;;;;;2.47;1.50;;;20.40;77.60;;;;;;5020783;28;20033;-77
2022/06/18 01:49:51;;;;;;;2.03;1.38;;;20.40;77.50;;;;;;5015730;28;20073;-77
2022/06/18 01:52:22;;;;;;;1.55;1.30;;;20.40;77.70;;;;;;5015802;28;20020;-77
2022/06/18 01:54:54;;;;;;;2.38;1.60;;;20.40;77.50;;;;;;5032741;28;20072;-77
2022/06/18 01:57:29;;;;;;;3.92;1.60;;;20.50;77.90;;;;;;5031983;28;20116;-77
2022/06/18 02:00:07;;;;;;;1.67;1.40;;;20.40;78.60;;;;;;5031954;28;20083;-77
2022/06/18 02:02:32;;;;;;;2.42;1.80;;;20.20;79.10;;;;;;5031122;28;20025;-77
2022/06/18 02:04:58;;;;;;;2.10;1.40;;;20.10;79.40;;;;;;5031522;28;20431;-77
2022/06/18 02:07:24;;;;;;;2.42;1.38;;;20.10;79.90;;;;;;5030886;28;20064;-77
2022/06/18 02:10:16;;;;;;;3.22;1.23;;;20.10;80.30;;;;;;5032207;28;20034;-78
2022/06/18 02:12:42;;;;;;;3.97;1.60;;;20.00;80.70;;;;;;5024117;28;20536;-80
2022/06/18 02:15:14;;;;;;;2.28;1.60;;;20.00;81.20;;;;;;5031105;28;20057;-79
2022/06/18 02:17:41;;;;;;;1.40;1.30;;;20.00;81.50;;;;;;5031690;28;20117;-79
2022/06/18 02:20:15;;;;;;;1.88;1.33;;;20.00;81.50;;;;;;5032036;28;20108;-80
2022/06/18 02:22:45;;;;;;;4.15;1.25;;;20.00;81.60;;;;;;5031682;28;20026;-80
2022/06/18 02:25:13;;;;;;;1.95;1.45;;;20.00;81.40;;;;;;5031792;28;20117;-79
2022/06/18 02:27:40;;;;;;;3.50;1.45;;;20.00;81.60;;;;;;5031392;28;20364;-80
2022/06/18 02:30:14;;;;;;;3.28;1.40;;;20.00;81.50;;;;;;5032138;28;20087;-80
2022/06/18 02:33:04;;;;;;;4.22;1.67;;;19.90;81.90;;;;;;5031453;28;20087;-79
2022/06/18 02:35:34;;;;;;;4.85;1.50;;;19.80;82.30;;;;;;5032970;28;20071;-79
2022/06/18 02:38:00;;;;;;;2.67;1.40;;;19.80;82.60;;;;;;5022355;28;20026;-78
2022/06/18 02:40:30;;;;;;;5.35;1.70;;;19.80;82.80;;;;;;5032498;28;20040;-78
2022/06/18 02:43:00;;;;;;;2.92;1.40;;;19.80;82.90;;;;;;5035355;28;20032;-77
2022/06/18 02:45:27;;;;;;;2.00;1.40;;;19.70;82.80;;;;;;5022431;28;20076;-78
2022/06/18 02:47:56;;;;;;;6.05;1.83;;;19.80;82.90;;;;;;5014490;28;20411;-78
2022/06/18 02:50:25;;;;;;;3.25;1.75;;;19.80;82.80;;;;;;5031131;28;20029;-78
2022/06/18 02:52:54;;;;;;;1.42;1.33;;;19.70;82.70;;;;;;5021701;28;20021;-78
2022/06/18 02:55:32;;;;;;;2.83;1.67;;;19.70;82.80;;;;;;5022859;28;20029;-77
2022/06/18 02:58:17;;;;;;;2.08;1.48;;;19.70;83.50;;;;;;5030217;28;20034;-77
2022/06/18 03:00:45;;;;;;;3.20;1.63;;;19.70;83.10;;;;;;5021999;28;20028;-79
2022/06/18 03:03:14;;;;;;;2.33;1.50;;;19.60;83.00;;;;;;5034921;28;20029;-78
2022/06/18 03:05:40;;;;;;;2.17;1.50;;;19.50;83.10;;;;;;5035179;28;20056;-78
2022/06/18 03:08:07;;;;;;;4.68;1.75;;;19.50;83.80;;;;;;5033664;28;20112;-78
2022/06/18 03:13:18;;;;;;;2.50;1.48;;;19.40;84.60;;;;;;5034879;28;20730;-78
2022/06/18 03:15:45;;;;;;;3.63;1.33;;;19.40;84.50;;;;;;5034629;28;20429;-78
2022/06/18 03:18:11;;;;;;;5.88;1.50;;;19.30;85.00;;;;;;5034621;28;20037;-78
2022/06/18 03:21:04;;;;;;;2.13;1.60;;;19.30;85.30;;;;;;5033832;28;20033;-79
2022/06/18 03:23:30;;;;;;;3.13;1.70;;;19.20;85.70;;;;;;5034925;28;20104;-79
2022/06/18 03:25:56;;;;;;;3.35;1.80;;;19.20;85.80;;;;;;5033850;28;20364;-79
2022/06/18 03:28:23;;;;;;;2.58;2.00;;;19.10;86.40;;;;;;5033193;28;20038;-79
2022/06/18 03:30:49;;;;;;;2.03;1.60;;;19.10;87.20;;;;;;5034073;28;20022;-79
2022/06/18 03:33:14;;;;;;;2.17;1.60;;;19.00;87.60;;;;;;5034510;28;20028;-80
2022/06/18 03:35:44;;;;;;;2.33;1.77;;;19.00;88.50;;;;;;5034135;28;20112;-79
2022/06/18 03:38:14;;;;;;;1.52;1.42;;;19.00;87.90;;;;;;5033116;28;20033;-78
2022/06/18 03:40:40;;;;;;;1.77;1.42;;;18.90;87.70;;;;;;5033804;28;20032;-79
2022/06/18 03:43:06;;;;;;;8.20;1.70;;;18.90;87.60;;;;;;5033418;28;20034;-79
2022/06/18 03:45:41;;;;;;;3.53;1.42;;;18.90;87.80;;;;;;5033496;28;20564;-78
2022/06/18 03:48:07;;;;;;;2.20;1.50;;;18.90;87.90;;;;;;5032483;28;20060;-78
2022/06/18 03:50:33;;;;;;;2.88;1.42;;;18.90;88.20;;;;;;5033689;28;20068;-79
2022/06/18 03:53:00;;;;;;;1.92;1.65;;;18.90;88.30;;;;;;5033337;28;20093;-79
2022/06/18 03:55:26;;;;;;;2.65;1.77;;;18.90;88.30;;;;;;5033572;28;20021;-79
2022/06/18 03:57:51;;;;;;;2.08;1.40;;;18.80;88.40;;;;;;5033613;28;20083;-79
2022/06/18 04:00:21;;;;;;;1.50;1.40;;;18.80;88.80;;;;;;5032790;28;20037;-79
2022/06/18 04:02:47;;;;;;;3.00;1.50;;;18.70;89.20;;;;;;5034461;28;20018;-79
2022/06/18 04:05:14;;;;;;;3.85;1.60;;;18.80;89.40;;;;;;5032589;28;20493;-79
2022/06/18 04:07:41;;;;;;;2.28;1.65;;;18.80;89.50;;;;;;5033253;28;20298;-79
2022/06/18 04:10:07;;;;;;;5.72;1.77;;;18.90;89.60;;;;;;5032740;28;20083;-78
2022/06/18 04:12:33;;;;;;;1.90;1.60;;;18.80;89.80;;;;;;5033498;28;20103;-77
2022/06/18 04:14:59;;;;;;;3.28;1.60;;;18.90;89.70;;;;;;5033266;28;20596;-78
2022/06/18 04:17:25;;;;;;;2.17;1.70;;;18.80;89.30;;;;;;5033524;28;20112;-77
2022/06/18 04:19:50;;;;;;;1.70;1.60;;;18.90;88.60;;;;;;5032701;28;20025;-79
2022/06/18 04:22:16;;;;;;;1.88;1.70;;;18.90;88.70;;;;;;5033561;28;20025;-78
2022/06/18 04:24:42;;;;;;;2.80;1.50;;;18.90;89.20;;;;;;5026229;28;20177;-78
2022/06/18 04:27:08;;;;;;;2.15;1.60;;;18.90;89.60;;;;;;5021737;28;20526;-77
2022/06/18 04:29:34;;;;;;;2.90;1.60;;;19.00;89.00;;;;;;5033897;28;20038;-79
2022/06/18 04:31:59;;;;;;;3.58;1.80;;;19.10;88.30;;;;;;5032799;28;20030;-79
2022/06/18 04:34:28;;;;;;;3.03;1.80;;;19.20;87.40;;;;;;5033523;28;20047;-79
2022/06/18 04:36:54;;;;;;;3.03;1.50;;;19.20;87.00;;;;;;5033082;28;20506;-79
2022/06/18 04:39:20;;;;;;;2.25;1.33;;;19.20;86.90;;;;;;5024378;28;20079;-80
2022/06/18 04:41:47;;;;;;;2.40;1.50;;;19.30;88.00;;;;;;5034097;28;20033;-80
2022/06/18 04:44:13;;;;;;;4.43;1.88;;;19.30;88.30;;;;;;5031954;28;20022;-80
2022/06/18 04:46:39;;;;;;;2.75;1.50;;;19.30;88.40;;;;;;5032375;28;20025;-79
2022/06/18 04:49:05;;;;;;;2.70;1.63;;;19.30;88.50;;;;;;5031266;28;20137;-78
2022/06/18 04:51:31;;;;;;;1.90;1.50;;;19.30;88.80;;;;;;5031774;28;20096;-78
2022/06/18 04:53:57;;;;;;;4.72;1.50;;;19.30;88.70;;;;;;5032256;28;20029;-78
2022/06/18 04:56:22;;;;;;;3.00;1.42;;;19.30;88.50;;;;;;5032903;28;20036;-79
2022/06/18 04:58:48;;;;;;;2.15;1.45;;;19.40;88.70;;;;;;5032280;28;20470;-79
2022/06/18 05:01:17;;;;;;;6.50;1.50;;;19.40;89.00;;;;;;5031767;28;20387;-79
2022/06/18 05:03:43;;;;;;;1.67;1.30;;;19.50;89.50;;;;;;5031914;28;20029;-80
2022/06/18 05:06:08;;;;;;;2.65;1.20;;;19.50;88.80;;;;;;5032494;28;20051;-80
2022/06/18 05:08:34;;;;;;;2.75;1.40;;;19.50;88.30;;;;;;5031975;28;20029;-79
2022/06/18 05:11:00;;;;;;;2.22;1.35;;;19.60;88.30;;;;;;5032261;28;20029;-79
2022/06/18 05:13:25;;;;;;;1.50;1.40;;;19.70;88.20;;;;;;5032552;28;20431;-79
2022/06/18 05:15:53;;;;;;;1.80;1.60;;;19.70;89.40;;;;;;5032279;28;20029;-79
2022/06/18 05:18:21;;;;;;;2.05;1.35;;;19.80;89.30;;;;;;5032752;28;20498;-80
2022/06/18 05:20:51;;;;;;;2.58;1.40;;;19.70;89.50;;;;;;5033126;28;20040;-80
2022/06/18 05:23:18;;;;;;;3.00;1.50;;;19.70;89.70;;;;;;5031198;28;20031;-79
2022/06/18 05:25:45;;;;;;;1.70;1.50;;;19.80;89.50;;;;;;5033046;28;20108;-80
2022/06/18 05:28:12;;;;;;;3.50;1.60;;;19.90;89.50;;;;;;5031958;28;20049;-79
2022/06/18 05:30:38;;;;;;;5.07;1.52;;;19.90;89.70;;;;;;5031827;28;20111;-78
2022/06/18 05:33:04;;;;;;;2.95;1.52;;;19.90;90.30;;;;;;5031044;28;20021;-78
2022/06/18 05:35:31;;;;;;;2.55;1.67;;;20.00;90.20;;;;;;5033054;28;20025;-78
2022/06/18 05:37:57;;;;;;;2.92;1.52;;;20.00;90.20;;;;;;5033111;28;20061;-79
2022/06/18 05:40:23;;;;;;;2.08;1.40;;;20.10;90.20;;;;;;5014774;28;20056;-79
2022/06/18 05:42:48;;;;;;;4.07;1.73;;;20.20;90.30;;;;;;5024829;28;20029;-79
2022/06/18 05:45:14;;;;;;;3.13;1.45;;;20.20;90.30;;;;;;5021451;28;20025;-78
2022/06/18 05:47:40;;;;;;;3.53;1.77;;;20.30;90.40;;;;;;5017479;28;20054;-79
2022/06/18 05:50:10;;;;;;;2.03;1.40;;;20.30;90.40;;;;;;5027651;28;20121;-79
2022/06/18 05:52:36;;;;;;;3.53;1.77;;;20.40;90.30;;;;;;5017211;28;20485;-79
2022/06/18 05:55:04;;;;;;;3.17;1.60;;;20.40;90.50;;;;;;5022721;28;20128;-79
2022/06/18 05:57:30;;;;;;;3.30;1.80;;;20.50;90.50;;;;;;5025384;28;20026;-79
2022/06/18 05:59:55;;;;;;;4.47;2.28;;;20.60;90.30;;;;;;5015206;28;20084;-80
2022/06/18 06:02:22;;;;;;;3.03;2.28;;;20.70;87.60;;;;;;5028870;28;20243;-80
2022/06/18 06:04:48;;;;;;;8.52;1.95;;;20.90;85.00;;;;;;5019343;28;20017;-79
2022/06/18 06:07:20;;;;;;;5.72;1.60;;;21.00;84.00;;;;;;5023128;28;20064;-79
2022/06/18 06:12:31;;;;;;;3.15;1.75;;;21.20;82.10;;;;;;5017364;28;20098;-80
2022/06/18 06:14:57;;;;;;;3.70;1.77;;;21.20;81.80;;;;;;5032400;28;20033;-80
2022/06/18 06:17:24;;;;;;;4.00;1.55;;;21.30;81.60;;;;;;5034843;28;20033;-80
2022/06/18 06:19:52;;;;;;;1.80;1.70;;;21.40;81.50;;;;;;5035259;28;20022;-80
2022/06/18 06:22:18;;;;;;;3.55;1.77;;;21.50;81.10;;;;;;5036021;28;20048;-79
2022/06/18 06:24:44;;;;;;;2.47;1.70;;;21.60;80.60;;;;;;5036041;28;20030;-79
2022/06/18 06:27:10;;;;;;;2.72;1.63;;;21.70;80.40;;;;;;5035400;28;20034;-78
2022/06/18 06:29:36;;;;;;;2.85;1.60;;;21.80;80.30;;;;;;5034742;28;20083;-80
2022/06/18 06:32:02;;;;;;;3.40;1.88;;;21.80;80.10;;;;;;5034824;28;20029;-79
2022/06/18 06:34:28;;;;;;;5.10;2.55;;;21.80;80.00;;;;;;5036210;28;20098;-78
2022/06/18 06:36:55;;;;;;;2.72;2.13;;;21.90;79.70;;;;;;5034976;28;20052;-78
2022/06/18 06:39:20;;;;;;;1.92;1.73;;;22.00;79.40;;;;;;5033970;28;20025;-78
2022/06/18 06:41:46;;;;;;;2.67;2.13;;;22.10;79.00;;;;;;5034764;28;20037;-78
2022/06/18 06:44:12;;;;;;;6.13;2.25;;;22.10;78.80;;;;;;5034980;28;20387;-78
2022/06/18 06:46:37;;;;;;;2.55;1.90;;;22.20;78.60;;;;;;5035544;28;20029;-79
2022/06/18 06:49:03;;;;;;;2.47;1.60;;;22.20;78.50;;;;;;5033631;28;20445;-78
2022/06/18 06:51:30;;;;;;;3.53;1.90;;;22.30;78.40;;;;;;5034499;28;20041;-79
2022/06/18 06:53:56;;;;;;;4.28;2.10;;;22.30;78.50;;;;;;5034465;28;20051;-79
2022/06/18 06:59:09;;;;;;;5.32;2.38;;;22.40;79.00;;;;;;5035515;28;20072;-78
2022/06/18 07:01:36;;;;;;;3.85;2.10;;;22.50;78.70;;;;;;5034125;28;20049;-79
2022/06/18 07:04:03;;;;;;;5.65;2.83;;;22.40;78.50;;;;;;5034297;28;20029;-79
2022/06/18 07:06:29;;;;;;;4.63;2.60;;;22.40;78.70;;;;;;5033936;28;20025;-79
2022/06/18 07:08:55;;;;;;;4.55;2.67;;;22.60;78.60;;;;;;5035280;28;20511;-80
2022/06/18 07:11:21;;;;;;;4.68;1.90;;;22.60;78.20;;;;;;5034258;28;20028;-80
2022/06/18 07:13:46;;;;;;;6.75;2.40;;;22.70;78.10;;;;;;5034676;28;20026;-81
2022/06/18 07:16:14;;;;;;;5.03;2.45;;;22.80;77.80;;;;;;5034379;28;20024;-80
2022/06/18 07:18:40;;;;;;;3.95;2.17;;;22.80;77.60;;;;;;5036001;28;20013;-81
2022/06/18 07:21:11;;;;;;;4.22;2.15;;;22.90;76.90;;;;;;5033596;28;20393;-80
2022/06/18 07:23:36;;;;;;;3.33;1.80;;;23.00;76.20;;;;;;5035870;28;20032;-80
2022/06/18 07:26:03;;;;;;;3.53;1.98;;;23.10;76.60;;;;;;5033716;28;20030;-79
2022/06/18 07:28:29;;;;;;;2.50;1.80;;;23.20;75.80;;;;;;5034779;28;20108;-80
2022/06/18 07:30:54;;;;;;;3.08;2.25;;;23.30;75.80;;;;;;5034239;28;20076;-80
2022/06/18 07:33:23;;;;;;;5.72;1.88;;;23.40;75.40;;;;;;5034965;28;20025;-79
2022/06/18 07:35:49;;;;;;;1.98;1.70;;;23.40;74.00;;;;;;5034340;28;20035;-79
2022/06/18 07:38:15;;;;;;;4.35;3.15;;;23.50;74.10;;;;;;5033654;28;20036;-80
2022/06/18 07:40:44;;;;;;;3.20;2.00;;;23.60;74.70;;;;;;5033543;28;20334;-80
2022/06/18 07:43:20;;;;;;;2.45;2.10;;;23.60;74.00;;;;;;5034579;28;20026;-78
2022/06/18 07:45:46;;;;;;;4.43;1.90;;;23.70;72.70;;;;;;5033479;28;20025;-79
2022/06/18 07:48:13;;;;;;;3.33;2.08;;;23.80;73.10;;;;;;5034156;28;20076;-80
2022/06/18 07:50:46;;;;;;;3.00;1.60;;;23.90;72.60;;;;;;5034993;28;20026;-80
2022/06/18 07:53:17;;;;;;;1.60;1.50;;;24.00;72.70;;;;;;5033469;28;20032;-79
2022/06/18 07:55:43;;;;;;;2.08;1.60;;;24.10;71.00;;;;;;5032941;28;20029;-79
2022/06/18 07:58:08;;;;;;;2.38;1.80;;;24.10;71.20;;;;;;5032595;28;20390;-78
2022/06/18 08:00:35;;;;;;;2.40;1.92;;;24.10;70.80;;;;;;5033855;28;20037;-79
2022/06/18 08:03:05;;;;;;;4.00;2.13;;;24.20;70.80;;;;;;5032804;28;20029;-78
2022/06/18 08:05:31;;;;;;;2.67;1.90;;;24.20;71.60;;;;;;5033686;28;20071;-79
2022/06/18 08:07:56;;;;;;;4.78;1.90;;;24.20;70.90;;;;;;5032305;28;20061;-79
2022/06/18 08:10:22;;;;;;;3.40;1.48;;;24.30;70.80;;;;;;5031728;28;20040;-78
2022/06/18 08:12:48;;;;;;;2.55;1.77;;;24.20;71.10;;;;;;5033972;28;20021;-80
2022/06/18 08:15:13;;;;;;;3.35;1.70;;;24.40;70.80;;;;;;5032917;28;20423;-80
2022/06/18 08:17:39;;;;;;;3.70;1.90;;;24.40;70.70;;;;;;5032816;28;20025;-79
2022/06/18 08:20:08;;;;;;;2.00;1.80;;;24.50;70.50;;;;;;5033124;28;20033;-80
2022/06/18 08:22:36;;;;;;;3.75;1.80;;;24.50;70.30;;;;;;5033010;28;20116;-79
2022/06/18 08:25:03;;;;;;;5.32;1.90;;;24.50;70.70;;;;;;5031252;28;20426;-79
2022/06/18 08:27:29;;;;;;;2.72;1.75;;;24.50;70.80;;;;;;5031492;28;20084;-79
2022/06/18 08:29:55;;;;;;;2.70;1.60;;;24.60;69.80;;;;;;5032335;28;20030;-81
2022/06/18 08:32:21;;;;;;;3.78;1.67;;;24.70;69.30;;;;;;5033469;28;20029;-80
2022/06/18 08:34:47;;;;;;;5.28;1.63;;;24.80;68.20;;;;;;5029853;28;20530;-81
2022/06/18 08:37:13;;;;;;;1.92;1.63;;;24.70;68.10;;;;;;5032207;28;20091;-84
2022/06/18 08:39:39;;;;;;;1.60;1.50;;;24.80;68.20;;;;;;5032287;28;20382;-89
2022/06/18 08:42:32;;;;;;;2.42;1.95;;;24.90;67.70;;;;;;5033429;28;20067;-89
2022/06/18 08:45:27;;;;;;;3.22;1.27;;;25.10;66.90;;;;;;5030289;28;20017;-89
2022/06/18 08:48:13;;;;;;;3.55;1.48;;;25.20;65.30;;;;;;5031646;28;20045;-89
2022/06/18 08:50:42;;;;;;;2.05;1.73;;;25.20;65.00;;;;;;5038761;28;20026;-84
2022/06/18 08:53:34;;;;;;;2.90;1.90;;;25.30;65.10;;;;;;5047015;28;20025;-86
2022/06/18 08:56:08;;;;;;;2.25;1.45;;;25.40;64.00;;;;;;5041651;28;20079;-84
2022/06/18 08:59:05;;;;;;;2.88;2.10;;;25.40;64.40;;;;;;5040856;28;20033;-86
2022/06/18 09:01:38;;;;;;;1.85;1.65;;;25.30;64.40;;;;;;5036740;28;20025;-83
2022/06/18 09:04:13;;;;;;;2.17;1.50;;;25.20;64.80;;;;;;5033188;28;20433;-85
2022/06/18 09:06:55;;;;;;;2.90;1.70;;;25.30;64.70;;;;;;5041489;28;20033;-90
2022/06/18 09:09:33;;;;;;;6.57;1.58;;;25.30;63.90;;;;;;5033941;28;20042;-90
2022/06/18 09:12:17;;;;;;;1.50;1.40;;;25.50;63.50;;;;;;5033839;28;20021;-86
2022/06/18 09:15:01;;;;;;;4.50;1.65;;;25.60;64.00;;;;;;5035678;28;20025;-87
2022/06/18 09:17:39;;;;;;;3.47;2.83;;;25.70;63.70;;;;;;5031358;28;20048;-88
2022/06/18 09:20:14;;;;;;;3.22;2.50;;;25.70;63.20;;;;;;5032247;28;20104;-88
2022/06/18 09:22:50;;;;;;;2.70;2.05;;;25.60;62.90;;;;;;5035844;28;20025;-86
2022/06/18 09:25:18;;;;;;;3.58;2.00;;;25.60;62.60;;;;;;5029807;28;20360;-85
2022/06/18 09:28:07;;;;;;;2.13;1.67;;;25.60;62.90;;;;;;5041249;28;20032;-91
2022/06/18 09:30:44;;;;;;;1.98;1.20;;;25.70;63.00;;;;;;5044450;28;20060;-90
2022/06/18 09:33:42;;;;;;;3.67;1.30;;;25.90;61.20;;;;;;5056086;28;20025;-92
2022/06/18 09:36:33;;;;;;;1.65;1.10;;;26.10;60.00;;;;;;5039200;28;20033;-91
2022/06/18 09:39:07;;;;;;;1.45;1.35;;;26.10;59.60;;;;;;5033083;28;20025;-83
2022/06/18 09:41:48;;;;;;;3.17;1.20;;;26.00;59.60;;;;;;5030184;28;20433;-82
2022/06/18 09:44:28;;;;;;;2.30;1.27;;;26.20;59.70;;;;;;5031206;28;20116;-81
2022/06/18 09:47:21;;;;;;;4.78;1.38;;;26.30;59.50;;;;;;5029101;28;20036;-80
2022/06/18 09:49:47;;;;;;;1.42;1.13;;;26.40;59.00;;;;;;5042899;28;20042;-89
2022/06/18 09:52:20;;;;;;;2.10;1.10;;;26.50;58.20;;;;;;5037978;28;20109;-89
2022/06/18 09:54:51;;;;;;;3.20;1.30;;;26.60;57.90;;;;;;5038538;28;20029;-86
2022/06/18 09:57:20;;;;;;;1.55;1.17;;;26.50;58.50;;;;;;5039044;28;20033;-84
2022/06/18 10:00:03;;;;;;;1.52;1.42;;;26.50;58.90;;;;;;5032190;28;20089;-82
2022/06/18 10:02:31;;;;;;;3.38;1.20;;;26.40;59.00;;;;;;5017616;28;20060;-83
2022/06/18 10:07:48;;;;;;;2.22;1.13;;;26.40;59.30;;;;;;5034888;28;20037;-85
2022/06/18 10:10:21;;;;;;;3.42;1.10;;;26.50;58.50;;;;;;5034981;28;20084;-83
2022/06/18 10:12:54;;;;;;;1.92;1.00;;;26.60;57.60;;;;;;5025495;28;20017;-82
2022/06/18 10:15:22;;;;;;;1.95;1.25;;;26.60;57.80;;;;;;5034315;28;20033;-82
2022/06/18 10:18:34;;;;;;;2.28;1.10;;;26.60;59.10;;;;;;5020592;28;20048;-83
2022/06/18 10:21:06;;;;;;;1.90;1.20;;;26.80;57.90;;;;;;5036421;28;20025;-85
2022/06/18 10:24:07;;;;;;;4.32;2.20;;;27.00;57.20;;;;;;5037287;28;20033;-80
2022/06/18 10:26:42;;;;;;;2.17;1.50;;;27.20;56.60;;;;;;5023212;28;20051;-79
2022/06/18 10:29:17;;;;;;;2.92;1.50;;;27.10;57.00;;;;;;5029471;28;20026;-80
2022/06/18 10:31:55;;;;;;;5.50;1.75;;;27.00;57.20;;;;;;5034178;28;20101;-83
2022/06/18 10:34:56;;;;;;;1.60;1.10;;;27.10;56.90;;;;;;5033514;28;20411;-82
2022/06/18 10:37:51;;;;;;;2.40;1.70;;;27.20;57.50;;;;;;5032861;28;20519;-83
2022/06/18 10:40:29;;;;;;;5.35;2.28;;;27.50;54.50;;;;;;5034146;28;20239;-83
2022/06/18 10:43:13;;;;;;;2.60;1.58;;;27.90;53.90;;;;;;5031059;28;20039;-84
2022/06/18 10:45:49;;;;;;;2.38;1.50;;;27.90;52.70;;;;;;5030790;28;20051;-87
2022/06/18 10:48:23;;;;;;;10.30;6.53;;;28.10;52.60;;;;;;5031783;28;20056;-85
2022/06/18 10:50:52;;;;;;;5.22;2.70;;;28.00;53.00;;;;;;5035953;28;20021;-88
2022/06/18 10:53:21;;;;;;;3.60;2.05;;;28.00;53.00;;;;;;5048110;28;20018;-84
2022/06/18 10:56:01;;;;;;;2.13;1.50;;;28.00;52.80;;;;;;5033304;28;20021;-80
2022/06/18 10:58:27;;;;;;;2.15;1.10;;;28.00;53.20;;;;;;5030342;28;20469;-80
2022/06/18 11:01:04;;;;;;;2.83;1.30;;;28.40;51.50;;;;;;5031915;28;20030;-80
2022/06/18 11:03:33;;;;;;;3.05;1.00;;;28.50;50.80;;;;;;5022298;28;20026;-80
2022/06/18 11:06:03;;;;;;;3.47;1.08;;;28.40;52.30;;;;;;5031304;28;20083;-80
2022/06/18 11:08:32;;;;;;;3.90;1.00;;;28.50;52.00;;;;;;5026268;28;20116;-82
2022/06/18 11:11:05;;;;;;;3.63;0.80;;;28.80;50.30;;;;;;5035864;28;20068;-84
2022/06/18 11:13:44;;;;;;;1.60;0.80;;;29.00;48.70;;;;;;5035822;28;20025;-83
2022/06/18 11:16:15;;;;;;;2.30;1.00;;;29.10;48.70;;;;;;5035398;28;20083;-85
2022/06/18 11:19:00;;;;;;;1.60;0.73;;;28.90;48.70;;;;;;5037536;28;20032;-86
2022/06/18 11:21:40;;;;;;;1.80;0.90;;;28.90;49.10;;;;;;5052344;28;20168;-84
2022/06/18 11:24:36;;;;;;;2.73;0.80;;;28.90;48.90;;;;;;5035862;28;20386;-82
2022/06/18 11:27:12;;;;;;;1.48;1.00;;;28.90;49.30;;;;;;5032477;28;20286;-83
2022/06/18 11:29:53;;;;;;;1.48;0.95;;;29.00;50.30;;;;;;5048780;28;20032;-82
2022/06/18 11:32:23;;;;;;;;;;;29.30;48.30;;;;;;5033447;28;20025;-83
2022/06/18 11:34:55;;;;;;;1.33;0.70;;;29.30;48.70;;;;;;5035274;28;19905;-81
2022/06/18 11:37:27;;;;;;;1.00;0.90;;;29.30;48.90;;;;;;5034056;28;20463;-86
2022/06/18 11:40:18;;;;;;;3.85;1.20;;;29.30;50.00;;;;;;5038807;28;20083;-86
2022/06/18 11:42:58;;;;;;;2.53;1.30;;;29.30;52.50;;;;;;5034550;28;20029;-84
2022/06/18 11:45:45;;;;;;;3.25;1.38;;;29.40;52.40;;;;;;5034694;28;20051;-81
2022/06/18 11:48:18;;;;;;;5.50;1.27;;;29.50;52.40;;;;;;5033559;28;20115;-81
2022/06/18 11:51:00;;;;;;;2.90;1.15;;;29.60;52.70;;;;;;5034144;28;20033;-82
2022/06/18 11:53:37;;;;;;;2.00;1.13;;;29.70;51.40;;;;;;5033436;28;20466;-81
2022/06/18 11:56:11;;;;;;;1.25;1.10;;;29.70;50.90;;;;;;5035173;28;20458;-82
2022/06/18 11:58:46;;;;;;;2.33;1.20;;;29.80;49.80;;;;;;5038511;28;20029;-86
2022/06/18 12:01:51;;;;;;;1.30;1.00;;;29.90;50.00;;;;;;5037712;28;20037;-86
2022/06/18 12:04:39;;;;;;;1.13;0.90;;;29.80;49.80;;;;;;5039694;28;20404;-85
2022/06/18 12:07:11;;;;;;;3.35;1.10;;;29.90;48.80;;;;;;5041973;28;20028;-87
2022/06/18 12:09:37;;;;;;;2.03;1.00;;;30.20;48.90;;;;;;5041327;28;20093;-86
2022/06/18 12:12:25;;;;;;;2.83;1.30;;;30.30;48.50;;;;;;5042672;28;20083;-90
2022/06/18 12:15:03;;;;;;;2.78;1.00;;;30.30;49.00;;;;;;5046557;28;20036;-86
2022/06/18 12:17:47;;;;;;;3.38;1.20;;;30.40;49.60;;;;;;5046438;28;20029;-85
2022/06/18 12:20:39;;;;;;;3.88;1.23;;;30.40;49.30;;;;;;5037450;28;20025;-81
2022/06/18 12:23:28;;;;;;;4.28;1.50;;;30.40;49.80;;;;;;4956742;28;20242;-80
2022/06/18 12:26:17;;;;;;;2.40;1.00;;;30.40;50.50;;;;;;4957100;28;20053;-81
2022/06/18 12:28:56;;;;;;;3.22;1.30;;;30.50;50.90;;;;;;4959234;28;20054;-82
2022/06/18 12:31:39;;;;;;;1.90;1.10;;;30.60;50.50;;;;;;4972432;28;20038;-80
2022/06/18 12:34:07;;;;;;;3.33;1.23;;;30.80;51.00;;;;;;4972564;28;20043;-83
2022/06/18 12:36:52;;;;;;;4.03;1.15;;;30.80;51.20;;;;;;4956395;28;20030;-79
2022/06/18 12:39:29;;;;;;;2.70;1.08;;;30.90;49.80;;;;;;4958031;28;20022;-81
2022/06/18 12:42:08;;;;;;;3.90;1.38;;;31.00;49.50;;;;;;4973642;28;20484;-83
2022/06/18 12:44:33;;;;;;;3.05;1.20;;;31.00;50.30;;;;;;4957046;28;20179;-82
2022/06/18 12:47:20;;;;;;;1.73;1.10;;;31.20;50.40;;;;;;4956629;28;20133;-79
2022/06/18 12:49:55;;;;;;;3.67;1.38;;;31.30;49.90;;;;;;4972684;28;20042;-81
2022/06/18 12:52:43;;;;;;;3.90;1.30;;;31.30;48.70;;;;;;4972509;28;20032;-81
2022/06/18 12:55:45;;;;;;;2.75;1.40;;;31.40;48.80;;;;;;4972741;28;20599;-81
2022/06/18 12:58:26;;;;;;;2.70;1.20;;;31.50;50.10;;;;;;4970848;28;20035;-79
2022/06/18 13:00:59;;;;;;;4.93;1.17;;;31.60;49.90;;;;;;5017264;28;20041;-79
2022/06/18 13:03:30;;;;;;;2.92;1.00;;;31.80;49.10;;;;;;5031770;28;20391;-80
2022/06/18 13:06:10;;;;;;;5.88;1.25;;;31.80;49.20;;;;;;5032049;28;20036;-79
2022/06/18 13:08:51;;;;;;;2.58;1.40;;;32.00;49.30;;;;;;5036581;28;20383;-81
2022/06/18 13:11:23;;;;;;;4.03;1.25;;;32.10;49.50;;;;;;5023572;28;20024;-79
2022/06/18 13:13:58;;;;;;;5.07;1.33;;;32.20;48.80;;;;;;5017005;28;20033;-79
2022/06/18 13:16:29;;;;;;;2.88;1.40;;;32.40;48.80;;;;;;5015034;28;20104;-79
2022/06/18 13:19:16;;;;;;;5.30;1.30;;;32.60;48.60;;;;;;5032100;28;20036;-80
2022/06/18 13:21:43;;;;;;;4.20;1.52;;;32.80;48.70;;;;;;5033714;28;20391;-80
2022/06/18 13:30:32;;;;;;;1.45;1.17;;;33.40;47.90;;;;;;5016832;28;20509;-78
2022/06/18 13:33:16;;;;;;;2.63;1.20;;;33.70;47.50;;;;;;5031850;28;20026;-83
2022/06/18 13:36:07;;;;;;;2.95;1.23;;;33.80;46.90;;;;;;5032342;28;20074;-82